< < Back
Terminal Aerodrome Forecast


Current Version              Previous Versions:   1  2  3  4  5  6  7  8  9  

Terminal Aerodrome Forecast

635
FTUS42 KJAX 251000 AAA
TAFSSI
TAF AMD
KSSI 251011Z 2510/2606 VRB02KT P6SM SKC
     FM251400 36007KT P6SM SKC
     FM251900 05007KT P6SM SKC
     FM260200 00000KT P6SM SKC=



Latest METAR

299
SAUS70 KWBC 252300 RRB
MTRSSI
METAR KSSI 252253Z AUTO 00000KT 10SM CLR 19/12 A2997 RMK AO2 SLP148
T01890117


USA.gov is the U.S. government's official web portal to all federal, state and local government web resources and services.